createdAt,value
2018-12-27T16:56:46.682Z,1004.6
2018-12-27T16:57:48.062Z,1004.6
2018-12-27T16:59:22.212Z,1004.6
2018-12-27T17:00:23.606Z,1004.6
2018-12-27T17:01:45.051Z,1004.6
2018-12-27T17:02:46.437Z,1004.6
2018-12-27T17:04:08.455Z,1004.6
2018-12-27T17:05:09.836Z,1004.7
2018-12-27T17:06:11.211Z,1004.6
2018-12-27T17:07:16.088Z,1004.7
2018-12-27T17:08:13.981Z,1004.7
2018-12-27T17:09:15.440Z,1004.7
2018-12-27T17:10:16.790Z,1004.7
2018-12-27T17:11:18.203Z,1004.8
2018-12-27T17:12:19.612Z,1004.7
2018-12-27T17:13:20.955Z,1004.7
2018-12-27T17:14:22.346Z,1004.7
2018-12-27T17:15:25.257Z,1004.7
2018-12-27T17:16:27.246Z,1004.7
2018-12-27T17:17:28.640Z,1004.7
2018-12-27T17:18:30.038Z,1004.7
2018-12-27T17:19:31.465Z,1004.7
2018-12-27T17:20:32.894Z,1004.7
2018-12-27T17:21:34.301Z,1004.7
2018-12-27T17:22:35.703Z,1004.7
2018-12-27T17:23:37.084Z,1004.7
2018-12-27T17:24:38.468Z,1004.6
2018-12-27T17:25:39.849Z,1004.7
2018-12-27T17:26:41.285Z,1004.7
2018-12-27T17:27:42.741Z,1004.8
2018-12-27T17:28:44.144Z,1004.7
2018-12-27T17:29:45.527Z,1004.7
2018-12-27T17:30:46.918Z,1004.7
2018-12-27T17:31:48.290Z,1004.7
2018-12-27T17:32:49.695Z,1004.7
2018-12-27T17:33:51.122Z,1004.7
2018-12-27T17:34:52.503Z,1004.7
2018-12-27T17:35:53.887Z,1004.7
2018-12-27T17:36:55.325Z,1004.6
2018-12-27T17:37:56.803Z,1004.7
2018-12-27T17:38:58.668Z,1004.7
2018-12-27T17:40:00.077Z,1004.7
2018-12-27T17:41:01.472Z,1004.6
2018-12-27T17:42:02.858Z,1004.7
2018-12-27T17:43:04.324Z,1004.7
2018-12-27T17:44:05.729Z,1004.7
2018-12-27T17:45:07.447Z,1004.7
2018-12-27T17:46:09.010Z,1004.7
2018-12-27T17:47:10.745Z,1004.7
2018-12-27T17:48:12.631Z,1004.7
2018-12-27T17:49:14.185Z,1004.7
2018-12-27T17:50:15.754Z,1004.7
2018-12-27T17:51:17.170Z,1004.7
2018-12-27T17:52:18.675Z,1004.6
2018-12-27T17:53:20.274Z,1004.6
2018-12-27T17:54:21.853Z,1004.6
2018-12-27T17:55:23.232Z,1004.6
2018-12-27T17:56:24.638Z,1004.6
2018-12-27T17:57:26.202Z,1004.7
2018-12-27T17:58:27.792Z,1004.6
2018-12-27T17:59:29.451Z,1004.7
2018-12-27T18:00:31.092Z,1004.6
2018-12-27T18:01:32.569Z,1004.7
2018-12-27T18:02:34.737Z,1004.6
2018-12-27T18:03:36.961Z,1004.6
2018-12-27T18:04:38.587Z,1004.7
2018-12-27T18:05:40.121Z,1004.6
2018-12-27T18:06:42.105Z,1004.7
2018-12-27T18:07:43.681Z,1004.7
2018-12-27T18:08:45.335Z,1004.7
2018-12-27T18:09:46.928Z,1004.7
2018-12-27T18:10:48.446Z,1004.7
2018-12-27T18:11:49.961Z,1004.7
2018-12-27T18:12:51.669Z,1004.7
2018-12-27T18:13:53.134Z,1004.7
2018-12-27T18:14:54.684Z,1004.7
2018-12-27T18:15:56.311Z,1004.7
2018-12-27T18:16:57.927Z,1004.7
2018-12-27T18:17:59.594Z,1004.7
2018-12-27T18:19:01.232Z,1004.7
2018-12-27T18:20:02.765Z,1004.7
2018-12-27T18:21:04.590Z,1004.7
2018-12-27T18:22:06.229Z,1004.7
2018-12-27T18:23:08.716Z,1004.8
2018-12-27T18:24:10.401Z,1004.7
2018-12-27T18:25:11.864Z,1004.7
2018-12-27T18:26:13.401Z,1004.8
2018-12-27T18:27:14.976Z,1004.7
2018-12-27T18:28:16.502Z,1004.7
2018-12-27T18:29:17.993Z,1004.7
2018-12-27T18:30:19.790Z,1004.7
2018-12-27T18:31:21.753Z,1004.8
2018-12-27T18:32:23.372Z,1004.7
2018-12-27T18:33:24.932Z,1004.8
2018-12-27T18:34:26.607Z,1004.8
2018-12-27T18:35:28.142Z,1004.8
2018-12-27T18:36:29.797Z,1004.8
2018-12-27T18:37:37.464Z,1004.8
2018-12-27T18:38:32.829Z,1004.8
2018-12-27T18:39:34.494Z,1004.8
2018-12-27T18:40:35.976Z,1004.8
2018-12-27T18:41:37.485Z,1004.7
2018-12-27T18:42:38.980Z,1004.7
2018-12-27T18:43:40.483Z,1004.8
2018-12-27T18:44:41.923Z,1004.8
2018-12-27T18:45:43.437Z,1004.8
2018-12-27T18:46:44.858Z,1004.9
2018-12-27T18:47:46.314Z,1004.8
2018-12-27T18:48:47.838Z,1004.8
2018-12-27T18:49:50.461Z,1004.8
2018-12-27T18:50:50.940Z,1004.8
2018-12-27T18:51:52.548Z,1004.8
2018-12-27T18:52:54.070Z,1004.8
2018-12-27T18:53:55.579Z,1004.8
2018-12-27T18:54:57.028Z,1004.8
2018-12-27T18:55:58.581Z,1004.8
2018-12-27T18:57:00.168Z,1004.8
2018-12-27T18:58:01.594Z,1004.8
2018-12-27T18:59:03.146Z,1004.9
2018-12-27T19:00:04.540Z,1004.9
2018-12-27T19:01:06.010Z,1004.8
2018-12-27T19:02:07.442Z,1004.8
2018-12-27T19:03:09.680Z,1004.8
2018-12-27T19:04:10.411Z,1004.8
2018-12-27T19:05:12.386Z,1004.8
2018-12-27T19:06:13.838Z,1004.9
2018-12-27T19:07:15.257Z,1004.9
2018-12-27T19:08:17.416Z,1004.9
2018-12-27T19:09:18.804Z,1004.9
2018-12-27T19:10:20.239Z,1005.0
2018-12-27T19:11:21.682Z,1005.0
2018-12-27T19:12:23.090Z,1005.0
2018-12-27T19:13:24.493Z,1005.0
2018-12-27T19:14:25.877Z,1005.0
2018-12-27T19:15:28.822Z,1005.0
2018-12-27T19:16:31.043Z,1005.1
2018-12-27T19:17:35.804Z,1005.1
2018-12-27T19:18:36.236Z,1005.0
2018-12-27T19:19:38.886Z,1005.0
2018-12-27T19:20:40.943Z,1005.1
2018-12-27T19:21:42.309Z,1005.1
2018-12-27T19:22:43.707Z,1005.1
2018-12-27T19:23:45.076Z,1005.1
2018-12-27T19:24:46.452Z,1005.1
2018-12-27T19:25:47.833Z,1005.0
2018-12-27T19:26:49.258Z,1005.0
2018-12-27T19:27:50.661Z,1005.0
2018-12-27T19:28:52.062Z,1005.1
2018-12-27T19:29:53.431Z,1005.1
2018-12-27T19:30:54.804Z,1005.1
2018-12-27T19:31:56.177Z,1005.1
2018-12-27T19:32:57.844Z,1005.1
2018-12-27T19:33:59.268Z,1005.0
2018-12-27T19:35:00.721Z,1005.0
2018-12-27T19:36:02.157Z,1005.0
2018-12-27T19:37:03.532Z,1005.0
2018-12-27T19:38:04.923Z,1005.0
2018-12-27T19:39:06.359Z,1005.0
2018-12-27T19:40:07.818Z,1005.0
2018-12-27T19:41:09.182Z,1005.1
2018-12-27T19:42:11.221Z,1005.1
2018-12-27T19:43:12.648Z,1005.1
2018-12-27T19:44:15.462Z,1005.2
2018-12-27T19:45:19.607Z,1005.2
2018-12-27T19:46:22.926Z,1005.2
2018-12-27T19:47:24.097Z,1005.2
2018-12-27T19:48:25.445Z,1005.2
2018-12-27T19:49:28.975Z,1005.2
2018-12-27T19:50:31.200Z,1005.2
2018-12-27T19:51:32.604Z,1005.2
2018-12-27T19:52:35.565Z,1005.2
2018-12-27T19:53:39.446Z,1005.2
2018-12-27T19:54:41.590Z,1005.2
2018-12-27T19:55:43.009Z,1005.1
2018-12-27T19:56:44.967Z,1005.1
2018-12-27T19:57:46.500Z,1005.1
2018-12-27T19:58:47.892Z,1005.2
2018-12-27T19:59:49.330Z,1005.1
2018-12-27T20:00:50.733Z,1005.1
2018-12-27T20:01:52.130Z,1005.1
2018-12-27T20:02:54.086Z,1005.1
2018-12-27T20:03:55.479Z,1005.1
2018-12-27T20:04:57.070Z,1005.1
2018-12-27T20:05:58.528Z,1005.1
2018-12-27T20:07:01.336Z,1005.1
2018-12-27T20:08:02.737Z,1005.1
2018-12-27T20:09:05.060Z,1005.2
2018-12-27T20:10:07.384Z,1005.2
2018-12-27T20:11:08.647Z,1005.2
2018-12-27T20:12:10.020Z,1005.2
2018-12-27T20:13:11.410Z,1005.3
2018-12-27T20:14:12.779Z,1005.3
2018-12-27T20:15:14.205Z,1005.2
2018-12-27T20:16:15.652Z,1005.1
2018-12-27T20:17:17.592Z,1005.1
2018-12-27T20:18:19.024Z,1005.1
2018-12-27T20:19:20.483Z,1005.2
2018-12-27T20:20:21.849Z,1005.2
2018-12-27T20:21:23.262Z,1005.2
2018-12-27T20:22:25.278Z,1005.2
2018-12-27T20:23:26.709Z,1005.1
2018-12-27T20:24:28.129Z,1005.1
2018-12-27T20:25:29.495Z,1005.1
2018-12-27T20:26:33.284Z,1005.1
2018-12-27T20:27:34.702Z,1005.1
2018-12-27T20:28:37.097Z,1005.1
2018-12-27T20:29:39.544Z,1005.0
2018-12-27T20:30:40.942Z,1005.0
2018-12-27T20:31:42.315Z,1005.0
2018-12-27T20:32:43.686Z,1005.0
2018-12-27T20:33:45.083Z,1005.0
2018-12-27T20:34:46.493Z,1004.9
2018-12-27T20:35:49.341Z,1004.9
2018-12-27T20:36:50.791Z,1004.9
2018-12-27T20:37:52.224Z,1004.8
2018-12-27T20:38:53.607Z,1004.9
2018-12-27T20:39:55.006Z,1005.0
2018-12-27T20:40:56.401Z,1005.0
2018-12-27T20:41:57.787Z,1005.1
2018-12-27T20:42:59.689Z,1005.0
2018-12-27T20:44:01.111Z,1004.9
2018-12-27T20:45:02.493Z,1004.9
2018-12-27T20:46:03.876Z,1004.9
2018-12-27T20:47:06.187Z,1004.9
2018-12-27T20:48:07.567Z,1004.9
2018-12-27T20:49:09.612Z,1004.8
2018-12-27T20:50:10.994Z,1004.9
2018-12-27T20:51:12.368Z,1004.9
2018-12-27T20:52:15.505Z,1004.9
2018-12-27T20:53:16.905Z,1005.0
2018-12-27T20:54:18.275Z,1005.0
2018-12-27T20:55:19.639Z,1005.1
2018-12-27T20:56:21.059Z,1005.1
2018-12-27T20:57:22.462Z,1005.0
2018-12-27T20:58:23.873Z,1005.0
2018-12-27T20:59:25.358Z,1005.0
2018-12-27T21:00:28.679Z,1005.0
2018-12-27T21:01:29.028Z,1005.0
2018-12-27T21:02:30.411Z,1005.1
2018-12-27T21:03:31.786Z,1005.1
2018-12-27T21:04:33.164Z,1005.0
2018-12-27T21:05:35.098Z,1005.0
2018-12-27T21:06:36.593Z,1005.0
2018-12-27T21:07:38.651Z,1005.0
2018-12-27T21:08:40.036Z,1005.0
2018-12-27T21:09:41.422Z,1005.1
2018-12-27T21:10:42.820Z,1005.0
2018-12-27T21:11:44.195Z,1005.0
2018-12-27T21:12:45.609Z,1004.9
2018-12-27T21:13:47.023Z,1005.0
2018-12-27T21:14:48.471Z,1005.0
2018-12-27T21:15:49.887Z,1005.0
2018-12-27T21:16:51.400Z,1005.0
2018-12-27T21:17:52.663Z,1005.0
2018-12-27T21:18:54.220Z,1004.9
2018-12-27T21:19:55.579Z,1004.9
2018-12-27T21:20:56.949Z,1004.9
2018-12-27T21:21:58.428Z,1005.0
2018-12-27T21:22:59.989Z,1005.0
2018-12-27T21:24:01.406Z,1005.0
2018-12-27T21:25:02.775Z,1005.0
2018-12-27T21:26:04.255Z,1005.0
2018-12-27T21:27:05.637Z,1005.0
2018-12-27T21:28:07.054Z,1005.1
2018-12-27T21:29:08.407Z,1005.1
2018-12-27T21:30:09.907Z,1005.1
2018-12-27T21:31:11.302Z,1005.1
2018-12-27T21:32:14.225Z,1005.1
2018-12-27T21:33:15.732Z,1005.1
2018-12-27T21:34:17.240Z,1005.1
2018-12-27T21:35:18.655Z,1005.2
2018-12-27T21:36:20.123Z,1005.2
2018-12-27T21:37:21.712Z,1005.2
2018-12-27T21:38:23.142Z,1005.2
2018-12-27T21:39:24.529Z,1005.1
2018-12-27T21:40:25.949Z,1005.1
2018-12-27T21:41:27.362Z,1005.1
2018-12-27T21:42:28.849Z,1005.1
2018-12-27T21:43:30.259Z,1005.1
2018-12-27T21:44:31.672Z,1005.1
2018-12-27T21:45:33.061Z,1005.1
2018-12-27T21:46:34.459Z,1005.1
2018-12-27T21:47:35.860Z,1005.1
2018-12-27T21:48:37.239Z,1005.1
2018-12-27T21:49:38.645Z,1005.1
2018-12-27T21:50:40.030Z,1005.1
2018-12-27T21:51:42.212Z,1005.2
2018-12-27T21:52:42.887Z,1005.2
2018-12-27T21:53:44.231Z,1005.1
2018-12-27T21:54:45.638Z,1005.1
2018-12-27T21:55:47.015Z,1005.1
2018-12-27T21:56:49.389Z,1005.1
2018-12-27T21:57:51.026Z,1005.1
2018-12-27T21:58:52.481Z,1005.1
2018-12-27T21:59:53.890Z,1005.1
2018-12-27T22:00:55.330Z,1005.1
2018-12-27T22:01:56.682Z,1005.1
2018-12-27T22:02:58.085Z,1005.1
2018-12-27T22:03:59.545Z,1005.0
2018-12-27T22:05:00.929Z,1005.1
2018-12-27T22:06:02.400Z,1005.0
2018-12-27T22:07:03.909Z,1005.0
2018-12-27T22:08:05.321Z,1005.0
2018-12-27T22:09:06.832Z,1005.0
2018-12-27T22:10:09.087Z,1005.0
2018-12-27T22:11:10.591Z,1005.0
2018-12-27T22:12:11.965Z,1005.0
2018-12-27T22:13:13.368Z,1005.0
2018-12-27T22:14:15.297Z,1005.0
2018-12-27T22:15:17.312Z,1005.0
2018-12-27T22:16:18.695Z,1005.0
2018-12-27T22:17:20.113Z,1005.0
2018-12-27T22:18:21.538Z,1005.0
2018-12-27T22:19:23.042Z,1005.0
2018-12-27T22:20:24.431Z,1004.9
2018-12-27T22:21:25.952Z,1004.9
2018-12-27T22:22:27.358Z,1004.9
2018-12-27T22:23:28.786Z,1004.9
2018-12-27T22:24:30.202Z,1005.0
2018-12-27T22:25:31.881Z,1005.0
2018-12-27T22:26:33.278Z,1005.0
2018-12-27T22:27:34.676Z,1005.0
2018-12-27T22:28:36.111Z,1005.0
2018-12-27T22:29:37.502Z,1005.1
2018-12-27T22:30:38.986Z,1005.1
2018-12-27T22:31:40.544Z,1005.1
2018-12-27T22:32:41.981Z,1005.1
2018-12-27T22:33:43.612Z,1005.1
2018-12-27T22:34:45.862Z,1005.1
2018-12-27T22:35:47.362Z,1005.1
2018-12-27T22:36:48.848Z,1005.1
2018-12-27T22:37:50.232Z,1005.2
2018-12-27T22:38:51.641Z,1005.1
2018-12-27T22:39:53.030Z,1005.2
2018-12-27T22:40:54.402Z,1005.2
2018-12-27T22:41:55.791Z,1005.2
2018-12-27T22:42:57.198Z,1005.2
2018-12-27T22:43:58.668Z,1005.2
2018-12-27T22:45:00.153Z,1005.2
2018-12-27T22:46:01.566Z,1005.2
2018-12-27T22:47:02.957Z,1005.2
2018-12-27T22:48:04.340Z,1005.2
2018-12-27T22:49:05.723Z,1005.2
2018-12-27T22:50:07.182Z,1005.2
2018-12-27T22:51:08.620Z,1005.2
2018-12-27T22:52:10.047Z,1005.2
2018-12-27T22:53:11.454Z,1005.2
2018-12-27T22:54:12.904Z,1005.1
2018-12-27T22:55:14.389Z,1005.1
2018-12-27T22:56:15.803Z,1005.0
2018-12-27T22:57:17.215Z,1005.0
2018-12-27T22:58:18.645Z,1005.1
2018-12-27T22:59:20.067Z,1005.1
2018-12-27T23:00:21.506Z,1005.0
2018-12-27T23:01:22.902Z,1005.0
2018-12-27T23:02:24.304Z,1005.0
2018-12-27T23:03:25.736Z,1005.0
2018-12-27T23:04:28.268Z,1005.1
2018-12-27T23:05:29.597Z,1005.1
2018-12-27T23:07:10.958Z,1005.0
2018-12-27T23:08:12.359Z,1005.0
2018-12-27T23:09:13.753Z,1004.9
2018-12-27T23:10:15.198Z,1004.9
2018-12-27T23:11:16.571Z,1004.9
2018-12-27T23:12:17.930Z,1004.9
2018-12-27T23:13:19.308Z,1004.9
2018-12-27T23:14:20.681Z,1004.9
2018-12-27T23:15:22.058Z,1004.8
2018-12-27T23:16:23.426Z,1004.8
2018-12-27T23:17:24.808Z,1004.8
2018-12-27T23:18:26.173Z,1004.8
2018-12-27T23:19:27.588Z,1004.8
2018-12-27T23:20:28.982Z,1004.7
2018-12-27T23:21:30.371Z,1004.7
2018-12-27T23:22:31.738Z,1004.7
2018-12-27T23:23:33.135Z,1004.7
2018-12-27T23:24:34.648Z,1004.8
2018-12-27T23:25:35.946Z,1004.7
2018-12-27T23:26:37.321Z,1004.6
2018-12-27T23:27:38.697Z,1004.6
2018-12-27T23:28:40.262Z,1004.7
2018-12-27T23:29:41.755Z,1004.8
2018-12-27T23:30:43.074Z,1004.7
2018-12-27T23:31:44.440Z,1004.6
2018-12-27T23:32:45.812Z,1004.7
2018-12-27T23:33:47.361Z,1004.7
2018-12-27T23:34:48.735Z,1004.8
2018-12-27T23:35:50.113Z,1004.7
2018-12-27T23:36:51.533Z,1004.8
2018-12-27T23:37:53.020Z,1004.8
2018-12-27T23:38:54.479Z,1004.8
2018-12-27T23:39:55.888Z,1004.8
2018-12-27T23:40:57.426Z,1004.8
2018-12-27T23:41:59.049Z,1004.8
2018-12-27T23:43:00.417Z,1004.8
2018-12-27T23:44:01.787Z,1004.7
2018-12-27T23:45:03.265Z,1004.8
2018-12-27T23:46:04.731Z,1004.8
2018-12-27T23:47:06.137Z,1004.8
2018-12-27T23:48:07.513Z,1004.8
2018-12-27T23:49:08.981Z,1004.8
2018-12-27T23:50:10.340Z,1004.8
2018-12-27T23:51:11.755Z,1004.8
2018-12-27T23:52:13.081Z,1004.7
2018-12-27T23:53:14.525Z,1004.7
2018-12-27T23:54:15.916Z,1004.7
2018-12-27T23:55:17.312Z,1004.7
2018-12-27T23:56:18.690Z,1004.7
2018-12-27T23:57:20.078Z,1004.7
2018-12-27T23:58:21.463Z,1004.7
2018-12-27T23:59:22.833Z,1004.8
